Latest Weather Observations for Nullarbor

IDS60801

Issued at 1:02 pm CST Wednesday 22 April 2015 (issued every 30 minutes, with the page automatically refreshed every 10 minutes)

About weather observations | Map of weather stations | Latest weather observations for SA | Other Formats
Station Details ID: 018106 Name: NULLARBOR Lat: -31.45 Lon: 130.90 Height: 64.0 m
Data from the previous 72 hours. | See also: Recent months at Nullarbor
Date/Time
CST
Temp
°C
App
Temp
°C
Dew
Point
Rel
Hum
%
Delta-T
°C
Wind Press
QNH
hPa
Press
MSL
hPa
Rain
since 9 am
mm
Dir
 
Spd
km/h
Gust
km/h
Spd
kts
Gust
kts
22/01:00pm 20.6 17.6 5.8 38 7.3 NE 11 22 6 12 1024.1 1023.9 0.0
22/12:30pm 20.1 16.5 6.8 42 6.7 NNE 15 22 8 12 1024.7 1024.5 0.0
22/12:00pm 19.3 15.8 7.4 46 6.0 NNE 15 20 8 11 1024.9 1024.7 0.0
22/11:30am 18.6 15.1 7.4 48 5.7 NNE 15 20 8 11 1025.3 1025.1 0.0
22/11:00am 17.5 13.1 7.3 51 5.1 NE 20 26 11 14 1025.5 1025.3 0.0
22/10:30am 17.5 12.2 7.0 50 5.2 NE 24 28 13 15 1025.5 1025.3 0.0
22/10:00am 16.9 12.7 8.1 56 4.5 NE 20 28 11 15 1025.9 1025.7 0.0
22/09:30am 14.7 11.1 9.7 72 2.6 NE 19 24 10 13 1026.0 1025.8 0.0
22/09:00am 13.5 10.5 10.5 82 1.6 ENE 17 20 9 11 1025.9 1025.7 0.0
22/08:30am 12.8 9.9 10.9 88 1.0 ENE 17 20 9 11 1025.9 1025.7 0.0
22/08:00am 11.7 9.2 10.9 95 0.4 NE 15 17 8 9 1025.9 1025.7 0.0
22/07:30am 10.9 8.6 10.3 96 0.3 NE 13 15 7 8 1025.8 1025.6 0.0
22/07:00am 10.5 8.4 9.9 96 0.3 NE 11 13 6 7 1025.7 1025.5 0.0
22/06:30am 10.6 8.2 10.0 96 0.3 ENE 13 17 7 9 1025.4 1025.2 0.0
22/06:00am 9.6 7.2 8.5 93 0.5 ENE 11 13 6 7 1025.7 1025.5 0.0
22/05:30am 9.9 7.5 8.8 93 0.5 E 11 13 6 7 1025.7 1025.5 0.0
22/05:00am 9.8 7.0 8.4 91 0.7 E 13 13 7 7 1025.7 1025.5 0.0
22/04:30am 10.0 7.5 8.4 90 0.8 ESE 11 13 6 7 1025.8 1025.6 0.0
22/04:00am 10.3 7.9 8.6 89 0.8 E 11 11 6 6 1025.9 1025.7 0.0
22/03:30am 10.5 8.0 8.3 86 1.1 E 11 13 6 7 1026.2 1026.0 0.0
22/03:00am 11.0 8.2 8.6 85 1.2 ESE 13 13 7 7 1026.3 1026.1 0.0
22/02:30am 11.5 9.1 8.5 82 1.5 E 11 13 6 7 1026.4 1026.2 0.0
22/02:00am 12.0 10.0 8.7 80 1.6 E 9 13 5 7 1026.7 1026.5 0.0
22/01:30am 12.6 9.1 8.9 78 1.8 ESE 17 19 9 10 1026.7 1026.5 0.0
22/01:00am 12.1 9.4 8.9 81 1.6 E 13 15 7 8 1027.0 1026.8 0.0
22/12:30am 12.1 9.7 8.6 79 1.7 ESE 11 13 6 7 1027.2 1027.0 0.0
22/12:00am 12.6 9.8 8.7 77 1.9 ESE 13 13 7 7 1027.3 1027.2 0.0
 
Date/Time
CST
Temp
°C
App
Temp
°C
Dew
Point
Rel
Hum
%
Delta-T
°C
Wind Press
QNH
hPa
Press
MSL
hPa
Rain
since 9 am
mm
Dir
 
Spd
km/h
Gust
km/h
Spd
kts
Gust
kts
21/11:30pm 12.7 10.3 8.8 77 1.9 E 11 11 6 6 1027.4 1027.3 0.0
21/11:00pm 13.3 11.0 9.0 75 2.2 E 11 15 6 8 1027.7 1027.6 0.0
21/10:30pm 13.9 10.9 9.1 73 2.4 ESE 15 19 8 10 1027.6 1027.5 0.0
21/10:00pm 14.4 11.5 9.6 73 2.5 ESE 15 17 8 9 1027.6 1027.5 0.0
21/09:30pm 15.1 12.0 10.3 73 2.5 ESE 17 20 9 11 1027.2 1027.0 0.0
21/09:00pm 15.3 11.9 10.7 74 2.4 ESE 19 24 10 13 1027.1 1026.9 0.0
21/08:30pm 15.3 11.9 10.5 73 2.5 ESE 19 24 10 13 1027.3 1027.2 0.0
21/08:00pm 15.3 11.6 10.3 72 2.6 ESE 20 24 11 13 1027.3 1027.2 0.0
21/07:30pm 15.3 11.7 9.7 69 2.9 ESE 19 24 10 13 1027.1 1026.9 0.0
21/07:00pm 15.4 11.5 9.3 67 3.1 ESE 20 28 11 15 1027.0 1026.8 0.0
21/06:30pm 15.7 11.7 9.1 65 3.4 SE 20 30 11 16 1026.8 1026.6 0.0
21/06:00pm 16.2 12.0 8.4 60 4.0 SE 20 28 11 15 1026.9 1026.7 0.0
21/05:30pm 16.7 11.7 7.9 56 4.4 SE 24 30 13 16 1027.0 1026.8 0.0
21/05:00pm 17.3 11.6 6.8 50 5.2 SE 26 32 14 17 1027.0 1026.8 0.0
21/04:30pm 18.0 12.6 6.2 46 5.8 SE 24 32 13 17 1027.1 1026.9 0.0
21/04:00pm 19.0 13.6 4.7 39 6.9 SE 22 28 12 15 1027.1 1026.9 0.0
21/03:30pm 19.9 15.0 4.0 35 7.6 ESE 19 26 10 14 1027.4 1027.3 0.0
21/03:00pm 20.1 14.7 1.5 29 8.4 ENE 19 30 10 16 1027.6 1027.5 0.0
21/02:30pm 19.4 14.0 1.4 30 8.1 NE 19 30 10 16 1027.9 1027.8 0.0
21/02:00pm 18.8 13.2 1.3 31 7.9 ENE 20 30 11 16 1028.4 1028.3 0.0
21/01:30pm 19.1 13.2 1.6 31 7.9 NE 22 35 12 19 1028.9 1028.8 0.0
21/01:00pm 18.9 13.7 2.3 33 7.6 NE 19 26 10 14 1029.6 1029.5 0.0
21/12:30pm 18.2 12.8 2.5 35 7.1 ENE 20 32 11 17 1030.4 1030.3 0.0
21/12:00pm 17.8 12.1 2.9 37 6.8 NE 22 28 12 15 1030.9 1030.8 0.0
21/11:30am 17.1 11.6 3.8 41 6.2 NE 22 28 12 15 1031.3 1031.2 0.0
21/11:00am 16.3 10.5 4.4 45 5.6 NE 24 30 13 16 1031.6 1031.5 0.0
21/10:30am 15.5 9.1 3.3 44 5.5 NE 26 32 14 17 1031.9 1031.8 0.0
21/10:00am 14.7 8.0 3.5 47 5.1 NE 28 33 15 18 1032.2 1032.1 0.0
21/09:30am 13.9 7.2 3.4 49 4.7 NE 28 37 15 20 1032.5 1032.4 0.0
21/09:00am 12.5 5.7 3.2 53 4.1 ENE 28 35 15 19 1032.5 1032.4 0.0
21/08:30am 11.0 5.3 2.8 57 3.5 ENE 22 30 12 16 1032.5 1032.4 0.0
21/08:00am 9.0 3.7 2.8 65 2.6 ENE 20 26 11 14 1032.4 1032.3 0.0
21/07:30am 7.3 1.9 2.6 72 1.9 ENE 20 22 11 12 1032.4 1032.3 0.0
21/07:00am 6.7 1.5 2.6 75 1.7 ENE 19 20 10 11 1032.5 1032.4 0.0
21/06:30am 6.6 1.5 3.0 78 1.5 ENE 19 22 10 12 1032.5 1032.4 0.0
21/06:00am 6.5 1.9 3.5 81 1.3 ENE 17 20 9 11 1032.5 1032.4 0.0
21/05:30am 6.8 2.3 4.1 83 1.2 ENE 17 20 9 11 1032.6 1032.5 0.0
21/05:00am 5.9 1.5 4.5 91 0.6 ENE 17 19 9 10 1032.5 1032.4 0.0
21/04:30am 5.8 1.7 4.3 90 0.6 E 15 17 8 9 1032.3 1032.2 0.0
21/04:00am 6.1 2.0 4.3 88 0.8 E 15 15 8 8 1032.3 1032.2 0.0
21/03:30am 7.2 3.6 5.0 86 1.0 E 13 15 7 8 1032.3 1032.2 0.0
21/03:00am 8.6 5.2 5.7 82 1.3 E 13 15 7 8 1032.4 1032.3 0.0
21/02:30am 10.1 6.0 6.3 77 1.8 E 17 22 9 12 1032.5 1032.4 0.0
21/02:00am 11.4 6.5 7.1 75 2.1 E 22 28 12 15 1032.5 1032.4 0.0
21/01:30am 11.4 7.2 8.4 82 1.5 E 20 26 11 14 1032.4 1032.3 0.0
21/01:00am 11.7 7.3 8.9 83 1.4 E 22 30 12 16 1032.1 1032.0 0.0
21/12:30am 12.1 7.4 9.1 82 1.5 E 24 32 13 17 1032.3 1032.2 0.0
21/12:00am 12.4 7.7 9.1 80 1.6 E 24 33 13 18 1032.6 1032.5 0.0
 
Date/Time
CST
Temp
°C
App
Temp
°C
Dew
Point
Rel
Hum
%
Delta-T
°C
Wind Press
QNH
hPa
Press
MSL
hPa
Rain
since 9 am
mm
Dir
 
Spd
km/h
Gust
km/h
Spd
kts
Gust
kts
20/11:30pm 12.5 7.3 8.8 78 1.8 E 26 32 14 17 1032.8 1032.7 0.0
20/11:00pm 12.6 7.7 8.5 76 2.0 E 24 32 13 17 1033.2 1033.1 0.0
20/10:30pm 12.9 8.0 8.4 74 2.2 E 24 30 13 16 1033.1 1033.0 0.0
20/10:00pm 13.4 8.5 8.3 71 2.5 E 24 33 13 18 1033.2 1033.1 0.0
20/09:30pm 13.8 8.4 7.8 67 2.9 ESE 26 33 14 18 1033.0 1032.9 0.0
20/09:00pm 14.1 8.6 7.6 65 3.2 ESE 26 35 14 19 1033.0 1032.9 0.0
20/08:30pm 14.3 8.6 8.3 67 3.0 ESE 28 35 15 19 1032.9 1032.8 0.0
20/08:00pm 14.3 9.1 8.7 69 2.8 ESE 26 32 14 17 1032.8 1032.7 0.0
20/07:30pm 14.4 9.6 9.0 70 2.7 SE 24 32 13 17 1032.9 1032.8 0.0
20/07:00pm 14.5 9.7 8.9 69 2.9 SE 24 33 13 18 1032.7 1032.6 0.0
20/06:30pm 14.8 9.6 8.7 67 3.1 SE 26 35 14 19 1032.5 1032.4 0.0
20/06:00pm 15.6 10.0 8.8 64 3.5 SE 28 37 15 20 1032.2 1032.1 0.0
20/05:30pm 16.2 9.6 8.4 60 3.9 SE 33 41 18 22 1032.1 1032.0 0.0
20/05:00pm 16.8 10.3 8.0 56 4.5 SE 32 41 17 22 1032.0 1031.9 0.0
20/04:30pm 17.5 11.3 7.8 53 4.9 SE 30 37 16 20 1031.9 1031.8 0.0
20/04:00pm 17.8 11.6 6.3 47 5.7 SE 28 35 15 19 1032.2 1032.1 0.0
20/03:30pm 17.9 12.1 6.4 47 5.6 SE 26 35 14 19 1032.4 1032.3 0.0
20/03:00pm 17.4 11.9 6.0 47 5.5 SE 24 35 13 19 1032.6 1032.5 0.0
20/02:30pm 17.7 11.9 6.3 47 5.6 SE 26 37 14 20 1032.8 1032.7 0.0
20/02:00pm 17.8 12.7 6.0 46 5.8 SE 22 33 12 18 1033.2 1033.1 0.0
20/01:30pm 17.9 12.6 4.8 42 6.2 ESE 22 33 12 18 1033.8 1033.7 0.0
20/01:00pm 17.2 11.8 4.5 43 6.0 ESE 22 33 12 18 1034.4 1034.3 0.0
20/12:30pm 17.1 11.8 5.1 45 5.7 ESE 22 33 12 18 1035.1 1035.0 0.0
20/12:00pm 17.1 11.1 5.4 46 5.6 E 26 37 14 20 1035.7 1035.6 0.0
20/11:30am 17.2 11.6 5.5 46 5.6 E 24 35 13 19 1035.9 1035.8 0.0
20/11:00am 16.4 10.0 5.1 47 5.4 E 28 35 15 19 1036.3 1036.2 0.0
20/10:30am 15.8 9.0 5.1 49 5.0 ENE 30 37 16 20 1036.5 1036.4 0.0
20/10:00am 15.4 9.0 5.3 51 4.8 E 28 35 15 19 1036.6 1036.5 0.0
20/09:30am 14.6 7.5 5.7 55 4.2 ENE 32 39 17 21 1036.5 1036.4 0.0
20/09:00am 13.9 8.1 6.3 60 3.6 ENE 26 35 14 19 1036.4 1036.3 0.0
20/08:30am 12.3 6.4 5.9 65 3.0 ENE 26 33 14 18 1036.3 1036.2 0.0
20/08:00am 10.2 6.0 5.8 74 2.0 ENE 17 22 9 12 1036.2 1036.1 0.0
20/07:30am 8.2 4.3 5.3 82 1.3 E 15 19 8 10 1036.0 1035.9 0.0
20/07:00am 7.8 3.8 4.7 81 1.4 E 15 17 8 9 1035.9 1035.8 0.0
20/06:30am 8.6 4.2 5.0 78 1.6 E 17 20 9 11 1035.7 1035.6 0.0
20/06:00am 8.7 4.4 5.1 78 1.6 E 17 20 9 11 1035.6 1035.5 0.0
20/05:30am 8.3 4.3 4.7 78 1.6 E 15 17 8 9 1035.5 1035.4 0.0
20/05:00am 8.8 4.8 4.8 76 1.8 E 15 19 8 10 1035.3 1035.2 0.0
20/04:30am 9.3 4.9 4.9 74 2.0 E 17 20 9 11 1035.3 1035.2 0.0
20/04:00am 9.5 5.2 5.3 75 1.9 E 17 22 9 12 1035.2 1035.1 0.0
20/03:30am 9.7 5.5 5.9 77 1.7 E 17 19 9 10 1035.3 1035.2 0.0
20/03:00am 10.5 6.5 6.8 78 1.7 E 17 22 9 12 1035.5 1035.4 0.0
20/02:30am 10.7 6.6 7.9 83 1.3 E 19 22 10 12 1035.6 1035.5 0.0
20/02:00am 11.1 7.4 8.1 82 1.5 E 17 22 9 12 1035.6 1035.5 0.0
20/01:30am 11.1 7.5 8.5 84 1.3 E 17 20 9 11 1035.5 1035.4 0.0
20/01:00am 11.2 7.2 8.4 83 1.4 E 19 22 10 12 1035.5 1035.4 0.0
20/12:30am 10.8 7.1 7.9 82 1.4 E 17 19 9 10 1035.7 1035.6 0.0
20/12:00am 11.2 7.5 7.9 80 1.6 E 17 20 9 11 1035.6 1035.5 0.0
 
Date/Time
CST
Temp
°C
App
Temp
°C
Dew
Point
Rel
Hum
%
Delta-T
°C
Wind Press
QNH
hPa
Press
MSL
hPa
Rain
since 9 am
mm
Dir
 
Spd
km/h
Gust
km/h
Spd
kts
Gust
kts
19/11:30pm 11.0 7.7 7.9 81 1.5 E 15 17 8 9 1035.9 1035.8 0.0
19/11:00pm 9.8 6.6 6.9 82 1.4 E 13 15 7 8 1035.8 1035.7 0.0
19/10:30pm 10.2 7.1 7.3 82 1.4 E 13 15 7 8 1035.9 1035.8 0.0
19/10:00pm 11.1 8.1 7.8 80 1.6 E 13 17 7 9 1035.7 1035.6 0.0
19/09:30pm 12.0 9.0 7.5 74 2.2 ESE 13 17 7 9 1035.5 1035.4 0.0
19/09:00pm 12.7 9.3 7.6 71 2.5 E 15 19 8 10 1035.3 1035.2 0.0
19/08:30pm 13.6 9.5 7.8 68 2.8 ESE 19 24 10 13 1035.1 1035.0 0.0
19/08:00pm 14.2 10.0 8.2 67 3.0 ESE 20 28 11 15 1034.7 1034.6 0.0
19/07:30pm 14.5 10.1 8.9 69 2.8 SE 22 30 12 16 1034.3 1034.2 0.0
19/07:00pm 14.5 9.8 9.3 71 2.7 SE 24 32 13 17 1033.8 1033.7 0.0
19/06:30pm 15.0 10.3 9.1 68 3.0 SE 24 32 13 17 1033.6 1033.5 0.0
19/06:00pm 16.1 10.4 9.8 66 3.3 SE 30 39 16 21 1033.2 1033.1 0.0
19/05:30pm 16.6 10.7 9.1 61 3.9 SE 30 39 16 21 1033.1 1033.0 0.0
19/05:00pm 17.1 10.9 9.3 60 4.1 SE 32 41 17 22 1032.8 1032.7 0.0
19/04:30pm 17.9 11.3 8.5 54 4.8 SE 33 41 18 22 1032.7 1032.6 0.0
19/04:00pm 17.7 11.1 8.6 55 4.7 SE 33 43 18 23 1032.7 1032.6 0.0
19/03:30pm 18.2 11.3 7.3 49 5.5 SE 33 44 18 24 1032.7 1032.6 0.0
19/03:00pm 18.5 12.7 6.4 45 6.0 SE 26 37 14 20 1032.8 1032.7 0.0
19/02:30pm 18.0 11.1 6.5 47 5.7 ESE 32 41 17 22 1032.8 1032.7 0.0
19/02:00pm 17.9 12.4 7.6 51 5.2 SE 26 37 14 20 1032.9 1032.8 0.0
19/01:30pm 18.8 14.2 8.2 50 5.4 SE 22 32 12 17 1033.1 1033.0 0.0

Other Formats:

Comma delimited format used in spreadsheet applications
http://www.bom.gov.au/fwo/IDS60801/IDS60801.94651.axf

JavaScript Object Notation format (JSON) in row-major order
http://www.bom.gov.au/fwo/IDS60801/IDS60801.94651.json